sensor_id;sensor_type;location;lat;lon;timestamp;P1;durP1;ratioP1;P2;durP2;ratioP2
22268;SDS011;11303;50.772;19.670;2022-08-02T00:00:55;22.02;;;19.38;;
22268;SDS011;11303;50.772;19.670;2022-08-02T00:02:57;21.40;;;18.90;;
22268;SDS011;11303;50.772;19.670;2022-08-02T00:04:59;22.65;;;19.77;;
22268;SDS011;11303;50.772;19.670;2022-08-02T00:07:00;21.17;;;18.27;;
22268;SDS011;11303;50.772;19.670;2022-08-02T00:09:02;22.70;;;18.77;;
22268;SDS011;11303;50.772;19.670;2022-08-02T00:11:05;23.73;;;18.52;;
22268;SDS011;11303;50.772;19.670;2022-08-02T00:13:06;21.08;;;19.02;;
22268;SDS011;11303;50.772;19.670;2022-08-02T00:15:08;22.17;;;19.60;;
22268;SDS011;11303;50.772;19.670;2022-08-02T00:17:16;23.15;;;19.45;;
22268;SDS011;11303;50.772;19.670;2022-08-02T00:19:17;23.10;;;19.38;;
22268;SDS011;11303;50.772;19.670;2022-08-02T00:21:19;21.33;;;19.13;;
22268;SDS011;11303;50.772;19.670;2022-08-02T00:23:21;25.10;;;20.13;;
22268;SDS011;11303;50.772;19.670;2022-08-02T00:25:22;25.45;;;21.23;;
22268;SDS011;11303;50.772;19.670;2022-08-02T00:27:24;28.38;;;21.52;;
22268;SDS011;11303;50.772;19.670;2022-08-02T00:29:25;25.20;;;22.50;;
22268;SDS011;11303;50.772;19.670;2022-08-02T00:31:27;32.05;;;22.77;;
22268;SDS011;11303;50.772;19.670;2022-08-02T00:33:29;26.58;;;21.85;;
22268;SDS011;11303;50.772;19.670;2022-08-02T00:35:50;25.65;;;22.23;;
22268;SDS011;11303;50.772;19.670;2022-08-02T00:37:52;30.33;;;22.08;;
22268;SDS011;11303;50.772;19.670;2022-08-02T00:39:53;26.38;;;21.52;;
22268;SDS011;11303;50.772;19.670;2022-08-02T00:41:55;31.67;;;23.40;;
22268;SDS011;11303;50.772;19.670;2022-08-02T00:43:57;27.45;;;22.73;;
22268;SDS011;11303;50.772;19.670;2022-08-02T00:45:58;29.65;;;23.75;;
22268;SDS011;11303;50.772;19.670;2022-08-02T00:48:04;26.85;;;23.38;;
22268;SDS011;11303;50.772;19.670;2022-08-02T00:50:07;29.55;;;24.08;;
22268;SDS011;11303;50.772;19.670;2022-08-02T00:52:09;28.90;;;22.83;;
22268;SDS011;11303;50.772;19.670;2022-08-02T00:54:11;28.15;;;23.83;;
22268;SDS011;11303;50.772;19.670;2022-08-02T00:56:13;33.55;;;24.65;;
22268;SDS011;11303;50.772;19.670;2022-08-02T00:58:15;33.25;;;23.83;;
22268;SDS011;11303;50.772;19.670;2022-08-02T01:00:17;32.00;;;25.30;;
22268;SDS011;11303;50.772;19.670;2022-08-02T01:02:19;31.30;;;24.02;;
22268;SDS011;11303;50.772;19.670;2022-08-02T01:04:21;33.97;;;24.50;;
22268;SDS011;11303;50.772;19.670;2022-08-02T01:06:31;30.80;;;24.95;;
22268;SDS011;11303;50.772;19.670;2022-08-02T01:08:33;31.15;;;25.13;;
22268;SDS011;11303;50.772;19.670;2022-08-02T01:10:35;33.83;;;26.00;;
22268;SDS011;11303;50.772;19.670;2022-08-02T01:12:37;35.33;;;25.98;;
22268;SDS011;11303;50.772;19.670;2022-08-02T01:14:42;31.38;;;24.83;;
22268;SDS011;11303;50.772;19.670;2022-08-02T01:16:49;32.50;;;26.23;;
22268;SDS011;11303;50.772;19.670;2022-08-02T01:23:38;33.65;;;23.65;;
22268;SDS011;11303;50.772;19.670;2022-08-02T01:28:28;31.55;;;23.60;;
22268;SDS011;11303;50.772;19.670;2022-08-02T01:30:35;31.08;;;24.25;;
22268;SDS011;11303;50.772;19.670;2022-08-02T01:32:40;33.22;;;24.38;;
22268;SDS011;11303;50.772;19.670;2022-08-02T01:37:06;38.30;;;24.80;;
22268;SDS011;11303;50.772;19.670;2022-08-02T01:39:42;32.13;;;25.48;;
22268;SDS011;11303;50.772;19.670;2022-08-02T01:41:44;32.63;;;25.05;;
22268;SDS011;11303;50.772;19.670;2022-08-02T01:43:47;35.75;;;26.45;;
22268;SDS011;11303;50.772;19.670;2022-08-02T01:45:50;36.15;;;25.83;;
22268;SDS011;11303;50.772;19.670;2022-08-02T01:47:53;31.05;;;25.10;;
22268;SDS011;11303;50.772;19.670;2022-08-02T01:49:56;36.00;;;27.20;;
22268;SDS011;11303;50.772;19.670;2022-08-02T01:51:59;35.60;;;27.35;;
22268;SDS011;11303;50.772;19.670;2022-08-02T01:54:21;38.30;;;28.25;;
22268;SDS011;11303;50.772;19.670;2022-08-02T01:56:24;35.97;;;28.17;;
22268;SDS011;11303;50.772;19.670;2022-08-02T01:58:26;45.63;;;29.13;;
22268;SDS011;11303;50.772;19.670;2022-08-02T02:00:35;40.88;;;29.42;;
22268;SDS011;11303;50.772;19.670;2022-08-02T02:02:42;41.05;;;30.00;;
22268;SDS011;11303;50.772;19.670;2022-08-02T02:04:45;39.50;;;28.90;;
22268;SDS011;11303;50.772;19.670;2022-08-02T02:06:48;40.53;;;29.55;;
22268;SDS011;11303;50.772;19.670;2022-08-02T02:08:49;42.47;;;28.92;;
22268;SDS011;11303;50.772;19.670;2022-08-02T02:10:51;45.25;;;31.05;;
22268;SDS011;11303;50.772;19.670;2022-08-02T02:12:54;42.67;;;29.08;;
22268;SDS011;11303;50.772;19.670;2022-08-02T02:14:56;43.55;;;29.88;;
22268;SDS011;11303;50.772;19.670;2022-08-02T02:16:59;42.65;;;30.17;;
22268;SDS011;11303;50.772;19.670;2022-08-02T02:19:01;42.83;;;29.70;;
22268;SDS011;11303;50.772;19.670;2022-08-02T02:21:03;43.15;;;30.58;;
22268;SDS011;11303;50.772;19.670;2022-08-02T02:23:05;42.67;;;29.27;;
22268;SDS011;11303;50.772;19.670;2022-08-02T02:25:08;41.75;;;29.45;;
22268;SDS011;11303;50.772;19.670;2022-08-02T02:27:11;43.60;;;29.08;;
22268;SDS011;11303;50.772;19.670;2022-08-02T02:29:14;43.85;;;29.02;;
22268;SDS011;11303;50.772;19.670;2022-08-02T02:31:17;36.03;;;27.88;;
22268;SDS011;11303;50.772;19.670;2022-08-02T02:33:19;41.15;;;29.02;;
22268;SDS011;11303;50.772;19.670;2022-08-02T02:35:31;40.15;;;30.05;;
22268;SDS011;11303;50.772;19.670;2022-08-02T02:37:37;39.55;;;29.30;;
22268;SDS011;11303;50.772;19.670;2022-08-02T02:39:39;38.33;;;27.50;;
22268;SDS011;11303;50.772;19.670;2022-08-02T02:41:42;39.85;;;26.17;;
22268;SDS011;11303;50.772;19.670;2022-08-02T02:43:44;37.90;;;26.10;;
22268;SDS011;11303;50.772;19.670;2022-08-02T02:45:46;32.30;;;26.08;;
22268;SDS011;11303;50.772;19.670;2022-08-02T02:47:48;35.42;;;24.52;;
22268;SDS011;11303;50.772;19.670;2022-08-02T02:49:50;36.72;;;24.40;;
22268;SDS011;11303;50.772;19.670;2022-08-02T02:51:52;31.50;;;23.25;;
22268;SDS011;11303;50.772;19.670;2022-08-02T02:53:54;31.30;;;22.58;;
22268;SDS011;11303;50.772;19.670;2022-08-02T02:56:16;28.70;;;21.60;;
22268;SDS011;11303;50.772;19.670;2022-08-02T02:58:18;30.70;;;22.38;;
22268;SDS011;11303;50.772;19.670;2022-08-02T03:00:29;24.65;;;20.55;;
22268;SDS011;11303;50.772;19.670;2022-08-02T03:02:49;24.85;;;20.38;;
22268;SDS011;11303;50.772;19.670;2022-08-02T03:04:51;26.85;;;20.63;;
22268;SDS011;11303;50.772;19.670;2022-08-02T03:06:58;22.48;;;19.48;;
22268;SDS011;11303;50.772;19.670;2022-08-02T03:09:00;26.58;;;20.25;;
22268;SDS011;11303;50.772;19.670;2022-08-02T03:11:02;25.10;;;18.23;;
22268;SDS011;11303;50.772;19.670;2022-08-02T03:13:05;24.02;;;19.65;;
22268;SDS011;11303;50.772;19.670;2022-08-02T03:15:07;24.55;;;19.40;;
22268;SDS011;11303;50.772;19.670;2022-08-02T03:17:09;24.55;;;18.13;;
22268;SDS011;11303;50.772;19.670;2022-08-02T03:19:11;24.35;;;19.70;;
22268;SDS011;11303;50.772;19.670;2022-08-02T03:21:13;22.88;;;18.27;;
22268;SDS011;11303;50.772;19.670;2022-08-02T03:23:15;25.50;;;18.65;;
22268;SDS011;11303;50.772;19.670;2022-08-02T03:25:16;26.92;;;19.60;;
22268;SDS011;11303;50.772;19.670;2022-08-02T03:27:18;21.35;;;18.23;;
22268;SDS011;11303;50.772;19.670;2022-08-02T03:29:20;23.70;;;19.00;;
22268;SDS011;11303;50.772;19.670;2022-08-02T03:31:22;21.77;;;19.17;;
22268;SDS011;11303;50.772;19.670;2022-08-02T03:33:24;23.75;;;18.70;;
22268;SDS011;11303;50.772;19.670;2022-08-02T03:35:26;24.90;;;18.33;;
22268;SDS011;11303;50.772;19.670;2022-08-02T03:37:28;23.30;;;17.98;;
22268;SDS011;11303;50.772;19.670;2022-08-02T03:39:30;22.40;;;17.55;;
22268;SDS011;11303;50.772;19.670;2022-08-02T03:41:33;22.13;;;17.55;;
22268;SDS011;11303;50.772;19.670;2022-08-02T03:43:36;20.92;;;17.02;;
22268;SDS011;11303;50.772;19.670;2022-08-02T03:45:40;22.38;;;15.95;;
22268;SDS011;11303;50.772;19.670;2022-08-02T03:47:48;19.67;;;16.77;;
22268;SDS011;11303;50.772;19.670;2022-08-02T03:49:50;20.27;;;15.07;;
22268;SDS011;11303;50.772;19.670;2022-08-02T03:51:52;17.90;;;14.30;;
22268;SDS011;11303;50.772;19.670;2022-08-02T03:53:54;14.52;;;12.93;;
22268;SDS011;11303;50.772;19.670;2022-08-02T03:55:57;17.30;;;13.70;;
22268;SDS011;11303;50.772;19.670;2022-08-02T03:57:59;17.25;;;13.52;;
22268;SDS011;11303;50.772;19.670;2022-08-02T04:00:02;16.40;;;13.65;;
22268;SDS011;11303;50.772;19.670;2022-08-02T04:02:03;20.67;;;13.75;;
22268;SDS011;11303;50.772;19.670;2022-08-02T04:04:05;17.25;;;13.13;;
22268;SDS011;11303;50.772;19.670;2022-08-02T04:06:07;17.63;;;13.27;;
22268;SDS011;11303;50.772;19.670;2022-08-02T04:08:09;16.15;;;13.65;;
22268;SDS011;11303;50.772;19.670;2022-08-02T04:10:30;15.63;;;12.75;;
22268;SDS011;11303;50.772;19.670;2022-08-02T04:12:32;19.02;;;13.00;;
22268;SDS011;11303;50.772;19.670;2022-08-02T04:14:34;16.42;;;13.50;;
22268;SDS011;11303;50.772;19.670;2022-08-02T04:16:39;16.27;;;12.65;;
22268;SDS011;11303;50.772;19.670;2022-08-02T04:18:44;14.80;;;12.05;;
22268;SDS011;11303;50.772;19.670;2022-08-02T04:20:58;16.52;;;11.80;;
22268;SDS011;11303;50.772;19.670;2022-08-02T04:23:03;18.95;;;12.73;;
22268;SDS011;11303;50.772;19.670;2022-08-02T04:25:07;14.75;;;13.25;;
22268;SDS011;11303;50.772;19.670;2022-08-02T04:29:39;18.63;;;13.95;;
22268;SDS011;11303;50.772;19.670;2022-08-02T04:31:47;20.10;;;13.50;;
22268;SDS011;11303;50.772;19.670;2022-08-02T04:33:48;17.05;;;13.35;;
22268;SDS011;11303;50.772;19.670;2022-08-02T04:35:50;17.13;;;13.70;;
22268;SDS011;11303;50.772;19.670;2022-08-02T04:37:58;16.20;;;13.15;;
22268;SDS011;11303;50.772;19.670;2022-08-02T04:40:11;17.33;;;13.85;;
22268;SDS011;11303;50.772;19.670;2022-08-02T04:42:22;18.05;;;14.02;;
22268;SDS011;11303;50.772;19.670;2022-08-02T04:44:24;19.70;;;13.63;;
22268;SDS011;11303;50.772;19.670;2022-08-02T04:46:26;16.85;;;13.63;;
22268;SDS011;11303;50.772;19.670;2022-08-02T04:48:27;15.90;;;13.63;;
22268;SDS011;11303;50.772;19.670;2022-08-02T04:50:29;16.85;;;14.10;;
22268;SDS011;11303;50.772;19.670;2022-08-02T04:52:31;16.48;;;14.27;;
22268;SDS011;11303;50.772;19.670;2022-08-02T04:54:32;21.17;;;14.90;;
22268;SDS011;11303;50.772;19.670;2022-08-02T04:56:34;19.13;;;14.52;;
22268;SDS011;11303;50.772;19.670;2022-08-02T04:58:36;17.70;;;14.95;;
22268;SDS011;11303;50.772;19.670;2022-08-02T05:00:41;16.63;;;15.02;;
22268;SDS011;11303;50.772;19.670;2022-08-02T05:02:42;23.10;;;16.20;;
22268;SDS011;11303;50.772;19.670;2022-08-02T05:04:44;21.50;;;16.92;;
22268;SDS011;11303;50.772;19.670;2022-08-02T05:06:45;22.25;;;16.90;;
22268;SDS011;11303;50.772;19.670;2022-08-02T05:08:47;19.10;;;16.45;;
22268;SDS011;11303;50.772;19.670;2022-08-02T05:10:53;19.98;;;17.33;;
22268;SDS011;11303;50.772;19.670;2022-08-02T05:12:55;22.50;;;16.95;;
22268;SDS011;11303;50.772;19.670;2022-08-02T05:14:56;19.02;;;16.75;;
22268;SDS011;11303;50.772;19.670;2022-08-02T05:16:58;18.88;;;16.92;;
22268;SDS011;11303;50.772;19.670;2022-08-02T05:18:59;20.85;;;17.65;;
22268;SDS011;11303;50.772;19.670;2022-08-02T05:21:03;22.92;;;17.00;;
22268;SDS011;11303;50.772;19.670;2022-08-02T05:23:04;21.55;;;18.98;;
22268;SDS011;11303;50.772;19.670;2022-08-02T05:25:06;24.25;;;20.35;;
22268;SDS011;11303;50.772;19.670;2022-08-02T05:27:08;23.90;;;19.42;;
22268;SDS011;11303;50.772;19.670;2022-08-02T05:29:21;25.98;;;19.85;;
22268;SDS011;11303;50.772;19.670;2022-08-02T05:31:23;22.80;;;20.38;;
22268;SDS011;11303;50.772;19.670;2022-08-02T05:33:25;26.42;;;21.95;;
22268;SDS011;11303;50.772;19.670;2022-08-02T05:35:26;25.40;;;22.40;;
22268;SDS011;11303;50.772;19.670;2022-08-02T05:37:28;23.83;;;21.33;;
22268;SDS011;11303;50.772;19.670;2022-08-02T05:39:32;24.33;;;20.73;;
22268;SDS011;11303;50.772;19.670;2022-08-02T05:41:35;25.15;;;21.25;;
22268;SDS011;11303;50.772;19.670;2022-08-02T05:43:36;28.33;;;21.48;;
22268;SDS011;11303;50.772;19.670;2022-08-02T05:45:38;26.75;;;21.88;;
22268;SDS011;11303;50.772;19.670;2022-08-02T05:47:40;23.83;;;20.92;;
22268;SDS011;11303;50.772;19.670;2022-08-02T05:49:42;24.83;;;21.42;;
22268;SDS011;11303;50.772;19.670;2022-08-02T05:56:33;25.92;;;21.88;;
22268;SDS011;11303;50.772;19.670;2022-08-02T05:59:01;24.50;;;21.75;;
22268;SDS011;11303;50.772;19.670;2022-08-02T06:01:02;21.52;;;19.38;;
22268;SDS011;11303;50.772;19.670;2022-08-02T06:05:39;26.95;;;20.23;;
22268;SDS011;11303;50.772;19.670;2022-08-02T06:07:41;24.55;;;19.65;;
22268;SDS011;11303;50.772;19.670;2022-08-02T06:09:44;23.48;;;19.38;;
22268;SDS011;11303;50.772;19.670;2022-08-02T06:11:48;24.70;;;19.60;;
22268;SDS011;11303;50.772;19.670;2022-08-02T06:14:03;22.70;;;19.95;;
22268;SDS011;11303;50.772;19.670;2022-08-02T06:16:06;26.40;;;20.85;;
22268;SDS011;11303;50.772;19.670;2022-08-02T06:18:14;27.67;;;20.23;;
22268;SDS011;11303;50.772;19.670;2022-08-02T06:20:17;22.52;;;20.23;;
22268;SDS011;11303;50.772;19.670;2022-08-02T06:22:20;21.65;;;19.45;;
22268;SDS011;11303;50.772;19.670;2022-08-02T06:24:36;24.75;;;18.90;;
22268;SDS011;11303;50.772;19.670;2022-08-02T06:26:38;21.00;;;17.17;;
22268;SDS011;11303;50.772;19.670;2022-08-02T06:28:39;20.20;;;17.13;;
22268;SDS011;11303;50.772;19.670;2022-08-02T06:30:42;19.85;;;16.75;;
22268;SDS011;11303;50.772;19.670;2022-08-02T06:32:44;19.42;;;16.15;;
22268;SDS011;11303;50.772;19.670;2022-08-02T06:34:46;18.20;;;16.33;;
22268;SDS011;11303;50.772;19.670;2022-08-02T06:36:54;17.42;;;15.63;;
22268;SDS011;11303;50.772;19.670;2022-08-02T06:41:18;17.88;;;15.98;;
22268;SDS011;11303;50.772;19.670;2022-08-02T06:45:39;16.38;;;14.68;;
22268;SDS011;11303;50.772;19.670;2022-08-02T06:47:41;17.40;;;15.60;;
22268;SDS011;11303;50.772;19.670;2022-08-02T06:49:42;17.35;;;15.30;;
22268;SDS011;11303;50.772;19.670;2022-08-02T06:51:54;16.33;;;14.68;;
22268;SDS011;11303;50.772;19.670;2022-08-02T06:53:56;19.63;;;15.15;;
22268;SDS011;11303;50.772;19.670;2022-08-02T06:55:58;18.15;;;14.98;;
22268;SDS011;11303;50.772;19.670;2022-08-02T06:57:59;19.13;;;15.75;;
22268;SDS011;11303;50.772;19.670;2022-08-02T07:00:01;16.67;;;15.02;;
22268;SDS011;11303;50.772;19.670;2022-08-02T07:02:07;18.48;;;13.77;;
22268;SDS011;11303;50.772;19.670;2022-08-02T07:04:10;17.77;;;14.95;;
22268;SDS011;11303;50.772;19.670;2022-08-02T07:06:11;19.15;;;14.48;;
22268;SDS011;11303;50.772;19.670;2022-08-02T07:08:16;15.07;;;13.45;;
22268;SDS011;11303;50.772;19.670;2022-08-02T07:10:18;14.93;;;13.27;;
22268;SDS011;11303;50.772;19.670;2022-08-02T07:12:20;14.38;;;12.85;;
22268;SDS011;11303;50.772;19.670;2022-08-02T07:14:22;14.70;;;13.13;;
22268;SDS011;11303;50.772;19.670;2022-08-02T07:16:23;16.85;;;12.85;;
22268;SDS011;11303;50.772;19.670;2022-08-02T07:18:25;16.55;;;13.38;;
22268;SDS011;11303;50.772;19.670;2022-08-02T07:20:26;17.05;;;15.25;;
22268;SDS011;11303;50.772;19.670;2022-08-02T07:22:28;16.88;;;14.98;;
22268;SDS011;11303;50.772;19.670;2022-08-02T07:24:30;14.40;;;13.00;;
22268;SDS011;11303;50.772;19.670;2022-08-02T07:26:32;16.00;;;14.15;;
22268;SDS011;11303;50.772;19.670;2022-08-02T07:28:53;18.48;;;13.85;;
22268;SDS011;11303;50.772;19.670;2022-08-02T07:30:55;15.98;;;14.35;;
22268;SDS011;11303;50.772;19.670;2022-08-02T07:32:57;23.02;;;20.48;;
22268;SDS011;11303;50.772;19.670;2022-08-02T07:35:00;26.52;;;19.48;;
22268;SDS011;11303;50.772;19.670;2022-08-02T07:37:07;36.35;;;20.10;;
22268;SDS011;11303;50.772;19.670;2022-08-02T07:39:29;20.70;;;18.70;;
22268;SDS011;11303;50.772;19.670;2022-08-02T07:41:33;15.27;;;13.88;;
22268;SDS011;11303;50.772;19.670;2022-08-02T07:43:34;13.82;;;12.43;;
22268;SDS011;11303;50.772;19.670;2022-08-02T07:45:36;15.45;;;13.85;;
22268;SDS011;11303;50.772;19.670;2022-08-02T07:47:57;20.35;;;16.35;;
22268;SDS011;11303;50.772;19.670;2022-08-02T07:49:58;20.55;;;14.70;;
22268;SDS011;11303;50.772;19.670;2022-08-02T07:52:00;24.20;;;14.43;;
22268;SDS011;11303;50.772;19.670;2022-08-02T07:54:02;16.02;;;13.13;;
22268;SDS011;11303;50.772;19.670;2022-08-02T07:56:04;13.70;;;11.93;;
22268;SDS011;11303;50.772;19.670;2022-08-02T07:58:09;19.85;;;12.50;;
22268;SDS011;11303;50.772;19.670;2022-08-02T08:00:13;19.70;;;12.48;;
22268;SDS011;11303;50.772;19.670;2022-08-02T08:02:17;18.20;;;11.93;;
22268;SDS011;11303;50.772;19.670;2022-08-02T08:04:19;18.55;;;11.25;;
22268;SDS011;11303;50.772;19.670;2022-08-02T08:06:21;12.88;;;11.63;;
22268;SDS011;11303;50.772;19.670;2022-08-02T08:08:29;15.48;;;10.65;;
22268;SDS011;11303;50.772;19.670;2022-08-02T08:10:30;15.00;;;11.20;;
22268;SDS011;11303;50.772;19.670;2022-08-02T08:12:32;14.18;;;12.13;;
22268;SDS011;11303;50.772;19.670;2022-08-02T08:14:34;14.25;;;12.70;;
22268;SDS011;11303;50.772;19.670;2022-08-02T08:16:36;16.88;;;13.75;;
22268;SDS011;11303;50.772;19.670;2022-08-02T08:18:38;14.77;;;13.18;;
22268;SDS011;11303;50.772;19.670;2022-08-02T08:20:39;21.52;;;14.43;;
22268;SDS011;11303;50.772;19.670;2022-08-02T08:22:41;17.70;;;13.50;;
22268;SDS011;11303;50.772;19.670;2022-08-02T08:24:42;20.20;;;13.02;;
22268;SDS011;11303;50.772;19.670;2022-08-02T08:26:45;22.35;;;12.15;;
22268;SDS011;11303;50.772;19.670;2022-08-02T08:28:46;17.10;;;13.60;;
22268;SDS011;11303;50.772;19.670;2022-08-02T08:30:48;21.45;;;14.25;;
22268;SDS011;11303;50.772;19.670;2022-08-02T08:32:50;15.82;;;12.38;;
22268;SDS011;11303;50.772;19.670;2022-08-02T08:34:51;11.73;;;10.50;;
22268;SDS011;11303;50.772;19.670;2022-08-02T08:36:53;16.42;;;11.63;;
22268;SDS011;11303;50.772;19.670;2022-08-02T08:38:55;14.55;;;10.93;;
22268;SDS011;11303;50.772;19.670;2022-08-02T08:40:56;16.35;;;12.35;;
22268;SDS011;11303;50.772;19.670;2022-08-02T08:42:58;15.23;;;12.45;;
22268;SDS011;11303;50.772;19.670;2022-08-02T08:45:00;14.50;;;12.90;;
22268;SDS011;11303;50.772;19.670;2022-08-02T08:47:02;18.38;;;13.18;;
22268;SDS011;11303;50.772;19.670;2022-08-02T08:49:16;20.10;;;13.30;;
22268;SDS011;11303;50.772;19.670;2022-08-02T08:51:20;19.40;;;13.40;;
22268;SDS011;11303;50.772;19.670;2022-08-02T08:53:23;74.35;;;63.10;;
22268;SDS011;11303;50.772;19.670;2022-08-02T08:55:37;305.75;;;204.30;;
22268;SDS011;11303;50.772;19.670;2022-08-02T08:57:39;97.03;;;79.97;;
22268;SDS011;11303;50.772;19.670;2022-08-02T08:59:42;23.08;;;20.80;;
22268;SDS011;11303;50.772;19.670;2022-08-02T09:01:44;15.15;;;13.55;;
22268;SDS011;11303;50.772;19.670;2022-08-02T09:03:51;16.48;;;12.35;;
22268;SDS011;11303;50.772;19.670;2022-08-02T09:05:52;17.05;;;12.32;;
22268;SDS011;11303;50.772;19.670;2022-08-02T09:07:58;15.27;;;13.85;;
22268;SDS011;11303;50.772;19.670;2022-08-02T09:09:59;23.75;;;13.00;;
22268;SDS011;11303;50.772;19.670;2022-08-02T09:12:14;12.32;;;11.10;;
22268;SDS011;11303;50.772;19.670;2022-08-02T09:14:26;11.05;;;9.63;;
22268;SDS011;11303;50.772;19.670;2022-08-02T09:16:39;11.75;;;10.55;;
22268;SDS011;11303;50.772;19.670;2022-08-02T09:18:43;17.15;;;10.38;;
22268;SDS011;11303;50.772;19.670;2022-08-02T09:20:54;11.30;;;10.18;;
22268;SDS011;11303;50.772;19.670;2022-08-02T09:23:08;16.17;;;10.45;;
22268;SDS011;11303;50.772;19.670;2022-08-02T09:25:14;11.82;;;10.13;;
22268;SDS011;11303;50.772;19.670;2022-08-02T09:27:19;10.93;;;9.82;;
22268;SDS011;11303;50.772;19.670;2022-08-02T09:29:23;11.98;;;9.45;;
22268;SDS011;11303;50.772;19.670;2022-08-02T09:31:24;10.32;;;9.38;;
22268;SDS011;11303;50.772;19.670;2022-08-02T09:33:26;9.85;;;8.85;;
22268;SDS011;11303;50.772;19.670;2022-08-02T09:35:32;16.67;;;9.55;;
22268;SDS011;11303;50.772;19.670;2022-08-02T09:38:35;16.52;;;10.30;;
22268;SDS011;11303;50.772;19.670;2022-08-02T09:40:36;15.68;;;9.45;;
22268;SDS011;11303;50.772;19.670;2022-08-02T09:42:44;12.05;;;8.68;;
22268;SDS011;11303;50.772;19.670;2022-08-02T09:44:59;11.30;;;9.90;;
22268;SDS011;11303;50.772;19.670;2022-08-02T09:47:01;13.73;;;8.95;;
22268;SDS011;11303;50.772;19.670;2022-08-02T09:49:16;10.10;;;9.10;;
22268;SDS011;11303;50.772;19.670;2022-08-02T09:51:20;11.32;;;8.40;;
22268;SDS011;11303;50.772;19.670;2022-08-02T09:53:24;9.65;;;8.65;;
22268;SDS011;11303;50.772;19.670;2022-08-02T09:55:25;11.40;;;8.55;;
22268;SDS011;11303;50.772;19.670;2022-08-02T09:57:27;10.40;;;8.45;;
22268;SDS011;11303;50.772;19.670;2022-08-02T09:59:30;11.32;;;8.93;;
22268;SDS011;11303;50.772;19.670;2022-08-02T10:01:32;10.85;;;9.27;;
22268;SDS011;11303;50.772;19.670;2022-08-02T10:03:45;12.93;;;10.23;;
22268;SDS011;11303;50.772;19.670;2022-08-02T10:05:54;12.05;;;10.77;;
22268;SDS011;11303;50.772;19.670;2022-08-02T10:08:03;12.95;;;9.38;;
22268;SDS011;11303;50.772;19.670;2022-08-02T10:10:05;16.00;;;9.27;;
22268;SDS011;11303;50.772;19.670;2022-08-02T10:12:07;13.02;;;8.40;;
22268;SDS011;11303;50.772;19.670;2022-08-02T10:14:10;15.18;;;8.52;;
22268;SDS011;11303;50.772;19.670;2022-08-02T10:16:12;10.57;;;8.68;;
22268;SDS011;11303;50.772;19.670;2022-08-02T10:18:14;13.10;;;9.80;;
22268;SDS011;11303;50.772;19.670;2022-08-02T10:20:39;10.13;;;8.55;;
22268;SDS011;11303;50.772;19.670;2022-08-02T10:22:44;9.38;;;7.30;;
22268;SDS011;11303;50.772;19.670;2022-08-02T10:24:46;11.43;;;7.03;;
22268;SDS011;11303;50.772;19.670;2022-08-02T10:26:49;8.52;;;6.93;;
22268;SDS011;11303;50.772;19.670;2022-08-02T10:28:51;10.10;;;6.68;;
22268;SDS011;11303;50.772;19.670;2022-08-02T10:30:52;6.75;;;6.05;;
22268;SDS011;11303;50.772;19.670;2022-08-02T10:32:56;10.13;;;5.28;;
22268;SDS011;11303;50.772;19.670;2022-08-02T10:35:09;10.32;;;6.15;;
22268;SDS011;11303;50.772;19.670;2022-08-02T10:37:27;7.20;;;6.07;;
22268;SDS011;11303;50.772;19.670;2022-08-02T10:39:39;8.15;;;5.97;;
22268;SDS011;11303;50.772;19.670;2022-08-02T10:41:51;8.98;;;6.35;;
22268;SDS011;11303;50.772;19.670;2022-08-02T10:43:54;12.95;;;6.85;;
22268;SDS011;11303;50.772;19.670;2022-08-02T10:48:20;7.18;;;5.75;;
22268;SDS011;11303;50.772;19.670;2022-08-02T10:53:18;12.75;;;5.43;;
22268;SDS011;11303;50.772;19.670;2022-08-02T10:55:20;8.88;;;4.65;;
22268;SDS011;11303;50.772;19.670;2022-08-02T10:59:27;6.07;;;4.80;;
22268;SDS011;11303;50.772;19.670;2022-08-02T11:01:30;6.75;;;5.30;;
22268;SDS011;11303;50.772;19.670;2022-08-02T11:03:40;6.95;;;5.63;;
22268;SDS011;11303;50.772;19.670;2022-08-02T11:05:42;10.07;;;5.60;;
22268;SDS011;11303;50.772;19.670;2022-08-02T11:07:45;20.60;;;6.13;;
22268;SDS011;11303;50.772;19.670;2022-08-02T11:09:49;7.53;;;5.78;;
22268;SDS011;11303;50.772;19.670;2022-08-02T11:14:04;6.68;;;5.93;;
22268;SDS011;11303;50.772;19.670;2022-08-02T11:16:09;8.35;;;5.97;;
22268;SDS011;11303;50.772;19.670;2022-08-02T11:18:12;8.50;;;5.93;;
22268;SDS011;11303;50.772;19.670;2022-08-02T11:20:14;8.90;;;6.22;;
22268;SDS011;11303;50.772;19.670;2022-08-02T11:22:16;8.50;;;6.15;;
22268;SDS011;11303;50.772;19.670;2022-08-02T11:24:27;6.80;;;6.20;;
22268;SDS011;11303;50.772;19.670;2022-08-02T11:28:34;8.30;;;6.78;;
22268;SDS011;11303;50.772;19.670;2022-08-02T11:30:36;10.52;;;6.40;;
22268;SDS011;11303;50.772;19.670;2022-08-02T11:32:38;6.55;;;5.90;;
22268;SDS011;11303;50.772;19.670;2022-08-02T11:34:41;8.63;;;7.07;;
22268;SDS011;11303;50.772;19.670;2022-08-02T11:36:43;11.05;;;6.57;;
22268;SDS011;11303;50.772;19.670;2022-08-02T11:38:48;7.50;;;6.72;;
22268;SDS011;11303;50.772;19.670;2022-08-02T11:40:50;7.82;;;6.30;;
22268;SDS011;11303;50.772;19.670;2022-08-02T11:42:57;11.82;;;6.28;;
22268;SDS011;11303;50.772;19.670;2022-08-02T11:44:59;10.23;;;8.00;;
22268;SDS011;11303;50.772;19.670;2022-08-02T11:47:01;8.98;;;7.22;;
22268;SDS011;11303;50.772;19.670;2022-08-02T11:51:15;9.63;;;6.50;;
22268;SDS011;11303;50.772;19.670;2022-08-02T11:53:18;8.45;;;6.35;;
22268;SDS011;11303;50.772;19.670;2022-08-02T11:55:36;9.95;;;7.25;;
22268;SDS011;11303;50.772;19.670;2022-08-02T11:57:37;7.80;;;7.00;;
22268;SDS011;11303;50.772;19.670;2022-08-02T11:59:59;8.35;;;7.10;;
22268;SDS011;11303;50.772;19.670;2022-08-02T12:02:13;7.43;;;6.72;;
22268;SDS011;11303;50.772;19.670;2022-08-02T12:04:17;9.00;;;7.22;;
22268;SDS011;11303;50.772;19.670;2022-08-02T12:06:24;8.32;;;7.40;;
22268;SDS011;11303;50.772;19.670;2022-08-02T12:08:26;12.88;;;7.20;;
22268;SDS011;11303;50.772;19.670;2022-08-02T12:10:27;8.77;;;6.90;;
22268;SDS011;11303;50.772;19.670;2022-08-02T12:12:29;10.88;;;7.57;;
22268;SDS011;11303;50.772;19.670;2022-08-02T12:14:31;13.02;;;7.15;;
22268;SDS011;11303;50.772;19.670;2022-08-02T12:16:34;10.10;;;7.05;;
22268;SDS011;11303;50.772;19.670;2022-08-02T12:19:06;15.13;;;10.25;;
22268;SDS011;11303;50.772;19.670;2022-08-02T12:21:40;11.30;;;10.10;;
22268;SDS011;11303;50.772;19.670;2022-08-02T12:23:42;13.10;;;10.63;;
22268;SDS011;11303;50.772;19.670;2022-08-02T12:26:04;9.60;;;7.43;;
22268;SDS011;11303;50.772;19.670;2022-08-02T12:28:22;9.80;;;7.10;;
22268;SDS011;11303;50.772;19.670;2022-08-02T12:32:28;12.75;;;6.70;;
22268;SDS011;11303;50.772;19.670;2022-08-02T12:34:30;8.65;;;7.70;;
22268;SDS011;11303;50.772;19.670;2022-08-02T12:36:32;7.47;;;6.68;;
22268;SDS011;11303;50.772;19.670;2022-08-02T12:38:34;8.30;;;6.65;;
22268;SDS011;11303;50.772;19.670;2022-08-02T12:40:36;13.32;;;7.47;;
22268;SDS011;11303;50.772;19.670;2022-08-02T12:42:48;9.40;;;7.13;;